Cody, WY (82414)

5:56 AM MST on January 18, 2017 (GMT -0700)
Valley View | | Change Station
Active Advisory: Special Statement

Elev 5166 ft 44.51 °N, 109.10 °W | Updated 10 minutes ago

Clear
Clear
17.7 °F
Feels Like 18 °F
N
0.0
Wind Variable Wind from East
Gusts 7.0 mph

Today
High -- | Low -- °F
--% Chance of Precip.
Yesterday
High -- | Low -- °F
Precip. -- in
Pressure 30.04 in
Visibility 10.0 miles
Clouds Clear
Windchill 18 °F
Dew Point 12 °F
Humidity 77%
Rainfall 0.00 in
Snow Depth Not available.
7:47 AM 5:06 PM
Waning Gibbous, 63% visible
METAR KCOD 181156Z AUTO 03006KT 10SM CLR M11/M14 A2985 RMK AO2 SLP171 T11061139 11083 21117 58008 FZRANO
Pressure 30.04 in
Visibility 10.0 miles
Clouds Clear
Windchill 18 °F
Dew Point 12 °F
Humidity 77%
Rainfall 0.00 in
Snow Depth Not available.
7:47 AM 5:06 PM
Waning Gibbous, 63% visible
METAR KCOD 181156Z AUTO 03006KT 10SM CLR M11/M14 A2985 RMK AO2 SLP171 T11061139 11083 21117 58008 FZRANO

Get Your Daily Forecast Email!

Thanks for signing up!

Be on the lookout for a verification email in your inbox.

You'll start receiving the daily forecast at 8 AM.

×

10-Day Weather Forecast

Almanac

Astronomy

Jan. 18, 2017 Rise Set
Actual Time
Civil Twilight
Nautical Twilight
Astronomical Twilight
Moon
Length of Visible Light
Length of Day
Tomorrow will be .
, % of the Moon is Illuminated

Today's Extremes

State Highs State Lows

Community

WunderPhotos

Upload Photos

1,962,540 photos uploaded!

WunderBlog® & News

Nearby

Air Quality

  Air Quality AQ Index Pollutant
Not available.

Snow Depth

Station Depth Elevation

Earthquake Activity

City Distance Mag. Time & Date
Minimum magnitude displayed is 2.5.

Coastal Water Temperatures

Place Temperature

Stations

Nearby Weather Stations

Station Location Temp. Windchill Dew Point Humidity Wind Precip. Elev Updated Type
                   

Watches & Warnings

Special Statement
Issued: 1:58 AM MST Jan. 18, 2017 – National Weather Service

West winds of 15 to 35 mph with gusts up to 50 mph are expected
to develop across the Cody foothills later today with strongest
gusts primarily in the vicinity of Clark. A few isolated gusts of
60 mph are also expected. These winds will continue through
tonight.



158 am MST Wed Jan 18 2017

West winds of 15 to 35 mph with gusts up to 50 mph are expected
to develop across the Cody foothills later today with strongest
gusts primarily in the vicinity of Clark. A few isolated gusts of
60 mph are also expected. These winds will continue through
tonight.



158 am MST Wed Jan 18 2017

West winds of 15 to 35 mph with gusts up to 50 mph are expected
to develop across the Cody foothills later today with strongest
gusts primarily in the vicinity of Clark. A few isolated gusts of
60 mph are also expected. These winds will continue through
tonight.